sensor_id;sensor_type;location;lat;lon;timestamp;P1;durP1;ratioP1;P2;durP2;ratioP2
61570;SDS011;47463;49.884;10.010;2022-10-22T00:00:00;16.7;;;11.1;;
61570;SDS011;47463;49.884;10.010;2022-10-22T00:05:00;16;;;10.8;;
61570;SDS011;47463;49.884;10.010;2022-10-22T00:10:00;13.2;;;8.8;;
61570;SDS011;47463;49.884;10.010;2022-10-22T00:15:00;13.2;;;8.8;;
61570;SDS011;47463;49.884;10.010;2022-10-22T00:20:00;18.1;;;9.9;;
61570;SDS011;47463;49.884;10.010;2022-10-22T00:25:00;12.9;;;8.9;;
61570;SDS011;47463;49.884;10.010;2022-10-22T00:30:00;11.9;;;7.7;;
61570;SDS011;47463;49.884;10.010;2022-10-22T00:35:00;10.9;;;6.3;;
61570;SDS011;47463;49.884;10.010;2022-10-22T00:40:00;8;;;5.3;;
61570;SDS011;47463;49.884;10.010;2022-10-22T00:45:03;8;;;5.3;;
61570;SDS011;47463;49.884;10.010;2022-10-22T00:50:00;7.9;;;5.4;;
61570;SDS011;47463;49.884;10.010;2022-10-22T00:55:00;9;;;6.6;;
61570;SDS011;47463;49.884;10.010;2022-10-22T01:00:00;9.2;;;5.7;;
61570;SDS011;47463;49.884;10.010;2022-10-22T01:05:00;10.2;;;6.8;;
61570;SDS011;47463;49.884;10.010;2022-10-22T01:10:02;9.5;;;6.6;;
61570;SDS011;47463;49.884;10.010;2022-10-22T01:15:02;9.5;;;6.6;;
61570;SDS011;47463;49.884;10.010;2022-10-22T01:20:02;11.4;;;6.7;;
61570;SDS011;47463;49.884;10.010;2022-10-22T01:25:02;11.7;;;7.6;;
61570;SDS011;47463;49.884;10.010;2022-10-22T01:30:00;13.7;;;8.3;;
61570;SDS011;47463;49.884;10.010;2022-10-22T01:35:00;14.8;;;9.9;;
61570;SDS011;47463;49.884;10.010;2022-10-22T01:40:00;10.6;;;8.1;;
61570;SDS011;47463;49.884;10.010;2022-10-22T01:45:00;10.6;;;8.1;;
61570;SDS011;47463;49.884;10.010;2022-10-22T01:50:07;19;;;10;;
61570;SDS011;47463;49.884;10.010;2022-10-22T01:55:02;11.3;;;8.4;;
61570;SDS011;47463;49.884;10.010;2022-10-22T02:00:00;12.5;;;7.6;;
61570;SDS011;47463;49.884;10.010;2022-10-22T02:05:01;9.2;;;6.2;;
61570;SDS011;47463;49.884;10.010;2022-10-22T02:10:00;9.5;;;6;;
61570;SDS011;47463;49.884;10.010;2022-10-22T02:15:00;9.5;;;6;;
61570;SDS011;47463;49.884;10.010;2022-10-22T02:20:00;11.1;;;7.2;;
61570;SDS011;47463;49.884;10.010;2022-10-22T02:25:00;9;;;6.6;;
61570;SDS011;47463;49.884;10.010;2022-10-22T02:30:01;11.5;;;5.5;;
61570;SDS011;47463;49.884;10.010;2022-10-22T02:35:00;8.1;;;5.7;;
61570;SDS011;47463;49.884;10.010;2022-10-22T02:40:00;11.1;;;6.3;;
61570;SDS011;47463;49.884;10.010;2022-10-22T02:45:00;11.1;;;6.3;;
61570;SDS011;47463;49.884;10.010;2022-10-22T02:50:00;10.2;;;5.6;;
61570;SDS011;47463;49.884;10.010;2022-10-22T02:55:00;11.3;;;7.1;;
61570;SDS011;47463;49.884;10.010;2022-10-22T03:00:00;9.7;;;6.8;;
61570;SDS011;47463;49.884;10.010;2022-10-22T03:05:00;10.9;;;6.4;;
61570;SDS011;47463;49.884;10.010;2022-10-22T03:10:00;10.8;;;6.6;;
61570;SDS011;47463;49.884;10.010;2022-10-22T03:15:00;10.8;;;6.6;;
61570;SDS011;47463;49.884;10.010;2022-10-22T03:20:00;13.3;;;6.8;;
61570;SDS011;47463;49.884;10.010;2022-10-22T03:25:02;9.1;;;5.4;;
61570;SDS011;47463;49.884;10.010;2022-10-22T03:30:00;5.8;;;4.2;;
61570;SDS011;47463;49.884;10.010;2022-10-22T03:35:00;5.9;;;3.5;;
61570;SDS011;47463;49.884;10.010;2022-10-22T03:40:00;7.3;;;3.1;;
61570;SDS011;47463;49.884;10.010;2022-10-22T03:45:00;7.3;;;3.1;;
61570;SDS011;47463;49.884;10.010;2022-10-22T03:50:00;6.7;;;2.8;;
61570;SDS011;47463;49.884;10.010;2022-10-22T03:55:00;3.5;;;2.3;;
61570;SDS011;47463;49.884;10.010;2022-10-22T04:00:00;3.9;;;2.1;;
61570;SDS011;47463;49.884;10.010;2022-10-22T04:05:00;4.4;;;1.9;;
61570;SDS011;47463;49.884;10.010;2022-10-22T04:10:00;4.2;;;2.1;;
61570;SDS011;47463;49.884;10.010;2022-10-22T04:15:00;4.2;;;2.1;;
61570;SDS011;47463;49.884;10.010;2022-10-22T04:20:00;3.5;;;1.8;;
61570;SDS011;47463;49.884;10.010;2022-10-22T04:25:00;4.3;;;2;;
61570;SDS011;47463;49.884;10.010;2022-10-22T04:30:00;10.3;;;2.1;;
61570;SDS011;47463;49.884;10.010;2022-10-22T04:35:00;4.2;;;1.8;;
61570;SDS011;47463;49.884;10.010;2022-10-22T04:40:00;4.7;;;2.1;;
61570;SDS011;47463;49.884;10.010;2022-10-22T04:45:00;4.7;;;2.1;;
61570;SDS011;47463;49.884;10.010;2022-10-22T04:50:00;3;;;1.9;;
61570;SDS011;47463;49.884;10.010;2022-10-22T04:55:00;3.8;;;2.3;;
61570;SDS011;47463;49.884;10.010;2022-10-22T05:00:00;4.3;;;2.2;;
61570;SDS011;47463;49.884;10.010;2022-10-22T05:05:00;3.8;;;2.3;;
61570;SDS011;47463;49.884;10.010;2022-10-22T05:10:00;4;;;2.3;;
61570;SDS011;47463;49.884;10.010;2022-10-22T05:15:00;4;;;2.3;;
61570;SDS011;47463;49.884;10.010;2022-10-22T05:20:00;3.6;;;2.3;;
61570;SDS011;47463;49.884;10.010;2022-10-22T05:25:00;5.2;;;2.4;;
61570;SDS011;47463;49.884;10.010;2022-10-22T05:30:00;5.1;;;2.5;;
61570;SDS011;47463;49.884;10.010;2022-10-22T05:35:00;4.7;;;2.1;;
61570;SDS011;47463;49.884;10.010;2022-10-22T05:40:00;4.7;;;2.6;;
61570;SDS011;47463;49.884;10.010;2022-10-22T05:45:00;4.7;;;2.6;;
61570;SDS011;47463;49.884;10.010;2022-10-22T05:50:00;5.2;;;2.5;;
61570;SDS011;47463;49.884;10.010;2022-10-22T05:55:00;5.6;;;2.8;;
61570;SDS011;47463;49.884;10.010;2022-10-22T06:00:00;6.8;;;2.8;;
61570;SDS011;47463;49.884;10.010;2022-10-22T06:05:00;8.5;;;3.6;;
61570;SDS011;47463;49.884;10.010;2022-10-22T06:10:00;5.1;;;3;;
61570;SDS011;47463;49.884;10.010;2022-10-22T06:15:00;5.1;;;3;;
61570;SDS011;47463;49.884;10.010;2022-10-22T06:20:00;4.4;;;2.9;;
61570;SDS011;47463;49.884;10.010;2022-10-22T06:25:00;5.1;;;3;;
61570;SDS011;47463;49.884;10.010;2022-10-22T06:30:00;5.7;;;2.8;;
61570;SDS011;47463;49.884;10.010;2022-10-22T06:35:00;3.6;;;2.8;;
61570;SDS011;47463;49.884;10.010;2022-10-22T06:40:00;5;;;3.2;;
61570;SDS011;47463;49.884;10.010;2022-10-22T06:45:00;5;;;3.2;;
61570;SDS011;47463;49.884;10.010;2022-10-22T06:50:00;7;;;3;;
61570;SDS011;47463;49.884;10.010;2022-10-22T06:55:00;5;;;2.7;;
61570;SDS011;47463;49.884;10.010;2022-10-22T07:00:00;3.2;;;2.8;;
61570;SDS011;47463;49.884;10.010;2022-10-22T07:05:00;5.4;;;2.7;;
61570;SDS011;47463;49.884;10.010;2022-10-22T07:10:00;4.2;;;2.1;;
61570;SDS011;47463;49.884;10.010;2022-10-22T07:15:00;4.2;;;2.1;;
61570;SDS011;47463;49.884;10.010;2022-10-22T07:20:00;4.8;;;2.4;;
61570;SDS011;47463;49.884;10.010;2022-10-22T07:25:00;5.3;;;2.6;;
61570;SDS011;47463;49.884;10.010;2022-10-22T07:30:00;3.9;;;2.6;;
61570;SDS011;47463;49.884;10.010;2022-10-22T07:35:00;5.2;;;2.6;;
61570;SDS011;47463;49.884;10.010;2022-10-22T07:40:00;4.8;;;2.5;;
61570;SDS011;47463;49.884;10.010;2022-10-22T07:45:00;4.8;;;2.5;;
61570;SDS011;47463;49.884;10.010;2022-10-22T07:50:00;4.2;;;1.9;;
61570;SDS011;47463;49.884;10.010;2022-10-22T07:55:00;4.2;;;1.8;;
61570;SDS011;47463;49.884;10.010;2022-10-22T08:00:00;4.6;;;2.2;;
61570;SDS011;47463;49.884;10.010;2022-10-22T08:05:00;3;;;1.4;;
61570;SDS011;47463;49.884;10.010;2022-10-22T08:10:00;5;;;2.1;;
61570;SDS011;47463;49.884;10.010;2022-10-22T08:15:00;5;;;2.1;;
61570;SDS011;47463;49.884;10.010;2022-10-22T08:20:00;3.6;;;1.8;;
61570;SDS011;47463;49.884;10.010;2022-10-22T08:25:00;4.4;;;1.3;;
61570;SDS011;47463;49.884;10.010;2022-10-22T08:30:00;3.1;;;0.9;;
61570;SDS011;47463;49.884;10.010;2022-10-22T08:35:00;1.7;;;0.9;;
61570;SDS011;47463;49.884;10.010;2022-10-22T08:40:00;2.4;;;0.9;;
61570;SDS011;47463;49.884;10.010;2022-10-22T08:45:02;2.4;;;0.9;;
61570;SDS011;47463;49.884;10.010;2022-10-22T08:50:00;1.4;;;0.7;;
61570;SDS011;47463;49.884;10.010;2022-10-22T08:55:00;1.4;;;0.8;;
61570;SDS011;47463;49.884;10.010;2022-10-22T09:00:01;1.7;;;0.9;;
61570;SDS011;47463;49.884;10.010;2022-10-22T09:05:01;3.2;;;0.9;;
61570;SDS011;47463;49.884;10.010;2022-10-22T09:10:00;1.9;;;0.8;;
61570;SDS011;47463;49.884;10.010;2022-10-22T09:15:00;1.9;;;0.8;;
61570;SDS011;47463;49.884;10.010;2022-10-22T09:20:02;2.5;;;1.1;;
61570;SDS011;47463;49.884;10.010;2022-10-22T09:25:01;2.9;;;1.1;;
61570;SDS011;47463;49.884;10.010;2022-10-22T09:30:00;1.6;;;1;;
61570;SDS011;47463;49.884;10.010;2022-10-22T09:35:00;4.9;;;1.1;;
61570;SDS011;47463;49.884;10.010;2022-10-22T09:40:02;3.1;;;1;;
61570;SDS011;47463;49.884;10.010;2022-10-22T09:45:00;3.1;;;1;;
61570;SDS011;47463;49.884;10.010;2022-10-22T09:50:03;2.7;;;1;;
61570;SDS011;47463;49.884;10.010;2022-10-22T09:55:00;4.8;;;0.9;;
61570;SDS011;47463;49.884;10.010;2022-10-22T10:00:00;2.2;;;1.2;;
61570;SDS011;47463;49.884;10.010;2022-10-22T10:05:01;3.5;;;1.1;;
61570;SDS011;47463;49.884;10.010;2022-10-22T10:10:00;2.2;;;0.9;;
61570;SDS011;47463;49.884;10.010;2022-10-22T10:15:02;2.2;;;0.9;;
61570;SDS011;47463;49.884;10.010;2022-10-22T10:20:02;9;;;1.6;;
61570;SDS011;47463;49.884;10.010;2022-10-22T10:25:03;1.9;;;0.8;;
61570;SDS011;47463;49.884;10.010;2022-10-22T10:30:00;3.2;;;1.1;;
61570;SDS011;47463;49.884;10.010;2022-10-22T10:35:02;3.6;;;0.9;;
61570;SDS011;47463;49.884;10.010;2022-10-22T10:40:03;4.1;;;0.9;;
61570;SDS011;47463;49.884;10.010;2022-10-22T10:45:02;4.1;;;0.9;;
61570;SDS011;47463;49.884;10.010;2022-10-22T10:50:03;2.4;;;0.7;;
61570;SDS011;47463;49.884;10.010;2022-10-22T10:55:02;2.2;;;0.8;;
61570;SDS011;47463;49.884;10.010;2022-10-22T11:00:02;3.1;;;1;;
61570;SDS011;47463;49.884;10.010;2022-10-22T11:05:04;4;;;1.2;;
61570;SDS011;47463;49.884;10.010;2022-10-22T11:10:01;3.2;;;0.9;;
61570;SDS011;47463;49.884;10.010;2022-10-22T11:15:01;3.2;;;0.9;;
61570;SDS011;47463;49.884;10.010;2022-10-22T11:20:01;3.4;;;1.1;;
61570;SDS011;47463;49.884;10.010;2022-10-22T11:25:00;3;;;0.9;;
61570;SDS011;47463;49.884;10.010;2022-10-22T11:30:00;2.2;;;0.9;;
61570;SDS011;47463;49.884;10.010;2022-10-22T11:35:00;3.1;;;0.9;;
61570;SDS011;47463;49.884;10.010;2022-10-22T11:40:01;3.1;;;0.8;;
61570;SDS011;47463;49.884;10.010;2022-10-22T11:45:00;3.1;;;0.8;;
61570;SDS011;47463;49.884;10.010;2022-10-22T11:50:09;1.8;;;0.8;;
61570;SDS011;47463;49.884;10.010;2022-10-22T11:55:00;2.8;;;1.3;;
61570;SDS011;47463;49.884;10.010;2022-10-22T12:00:00;2.9;;;0.9;;
61570;SDS011;47463;49.884;10.010;2022-10-22T12:05:16;2.3;;;0.9;;
61570;SDS011;47463;49.884;10.010;2022-10-22T12:10:03;4.4;;;1.2;;
61570;SDS011;47463;49.884;10.010;2022-10-22T12:15:00;4.4;;;1.2;;
61570;SDS011;47463;49.884;10.010;2022-10-22T12:20:00;3.9;;;1.1;;
61570;SDS011;47463;49.884;10.010;2022-10-22T12:25:00;3.2;;;0.9;;
61570;SDS011;47463;49.884;10.010;2022-10-22T12:30:00;2.4;;;0.8;;
61570;SDS011;47463;49.884;10.010;2022-10-22T12:35:03;5.7;;;1.1;;
61570;SDS011;47463;49.884;10.010;2022-10-22T12:40:00;4.5;;;0.8;;
61570;SDS011;47463;49.884;10.010;2022-10-22T12:45:00;4.5;;;0.8;;
61570;SDS011;47463;49.884;10.010;2022-10-22T12:50:00;3.9;;;0.9;;
61570;SDS011;47463;49.884;10.010;2022-10-22T12:55:00;4.2;;;0.9;;
61570;SDS011;47463;49.884;10.010;2022-10-22T13:00:00;4.1;;;1;;
61570;SDS011;47463;49.884;10.010;2022-10-22T13:05:16;2.1;;;0.9;;
61570;SDS011;47463;49.884;10.010;2022-10-22T13:10:00;2.3;;;0.9;;
61570;SDS011;47463;49.884;10.010;2022-10-22T13:15:16;2.3;;;0.9;;
61570;SDS011;47463;49.884;10.010;2022-10-22T13:20:00;3;;;0.9;;
61570;SDS011;47463;49.884;10.010;2022-10-22T13:25:03;3.1;;;0.8;;
61570;SDS011;47463;49.884;10.010;2022-10-22T13:30:08;4.7;;;1;;
61570;SDS011;47463;49.884;10.010;2022-10-22T13:35:00;1.6;;;1;;
61570;SDS011;47463;49.884;10.010;2022-10-22T13:40:00;3.5;;;1.2;;
61570;SDS011;47463;49.884;10.010;2022-10-22T13:45:00;3.5;;;1.2;;
61570;SDS011;47463;49.884;10.010;2022-10-22T13:50:00;2.1;;;1.2;;
61570;SDS011;47463;49.884;10.010;2022-10-22T13:55:00;4.2;;;1;;
61570;SDS011;47463;49.884;10.010;2022-10-22T14:00:00;2.8;;;1.1;;
61570;SDS011;47463;49.884;10.010;2022-10-22T14:05:00;2;;;0.9;;
61570;SDS011;47463;49.884;10.010;2022-10-22T14:10:00;3.2;;;1.2;;
61570;SDS011;47463;49.884;10.010;2022-10-22T14:15:00;3.2;;;1.2;;
61570;SDS011;47463;49.884;10.010;2022-10-22T14:20:00;4.4;;;1.2;;
61570;SDS011;47463;49.884;10.010;2022-10-22T14:25:00;3.2;;;1.3;;
61570;SDS011;47463;49.884;10.010;2022-10-22T14:30:00;3.3;;;1.2;;
61570;SDS011;47463;49.884;10.010;2022-10-22T14:35:00;2.3;;;1;;
61570;SDS011;47463;49.884;10.010;2022-10-22T14:40:00;2.5;;;1.1;;
61570;SDS011;47463;49.884;10.010;2022-10-22T14:45:00;2.5;;;1.1;;
61570;SDS011;47463;49.884;10.010;2022-10-22T14:50:00;2.3;;;1.1;;
61570;SDS011;47463;49.884;10.010;2022-10-22T14:55:00;4.8;;;1.2;;
61570;SDS011;47463;49.884;10.010;2022-10-22T15:00:00;2.9;;;0.9;;
61570;SDS011;47463;49.884;10.010;2022-10-22T15:05:00;1.5;;;1.3;;
61570;SDS011;47463;49.884;10.010;2022-10-22T15:10:00;3.5;;;1.1;;
61570;SDS011;47463;49.884;10.010;2022-10-22T15:15:00;3.5;;;1.1;;
61570;SDS011;47463;49.884;10.010;2022-10-22T15:20:00;5.5;;;1.1;;
61570;SDS011;47463;49.884;10.010;2022-10-22T15:25:00;3.7;;;1;;
61570;SDS011;47463;49.884;10.010;2022-10-22T15:30:00;4.7;;;1.2;;
61570;SDS011;47463;49.884;10.010;2022-10-22T15:35:00;3.3;;;1.1;;
61570;SDS011;47463;49.884;10.010;2022-10-22T15:40:00;6.4;;;1.3;;
61570;SDS011;47463;49.884;10.010;2022-10-22T15:45:00;6.4;;;1.3;;
61570;SDS011;47463;49.884;10.010;2022-10-22T15:50:00;5.2;;;1.2;;
61570;SDS011;47463;49.884;10.010;2022-10-22T15:55:00;4.3;;;1;;
61570;SDS011;47463;49.884;10.010;2022-10-22T16:00:00;3.8;;;1.2;;
61570;SDS011;47463;49.884;10.010;2022-10-22T16:05:00;4.4;;;1.4;;
61570;SDS011;47463;49.884;10.010;2022-10-22T16:10:00;3.4;;;1.1;;
61570;SDS011;47463;49.884;10.010;2022-10-22T16:15:00;3.4;;;1.1;;
61570;SDS011;47463;49.884;10.010;2022-10-22T16:20:00;6.5;;;1.2;;
61570;SDS011;47463;49.884;10.010;2022-10-22T16:25:00;8.8;;;1.7;;
61570;SDS011;47463;49.884;10.010;2022-10-22T16:30:00;5.7;;;1.3;;
61570;SDS011;47463;49.884;10.010;2022-10-22T16:35:00;7.7;;;1.9;;
61570;SDS011;47463;49.884;10.010;2022-10-22T16:40:00;10.5;;;1.5;;
61570;SDS011;47463;49.884;10.010;2022-10-22T16:45:00;10.5;;;1.5;;
61570;SDS011;47463;49.884;10.010;2022-10-22T16:50:00;5.7;;;1.8;;
61570;SDS011;47463;49.884;10.010;2022-10-22T16:55:00;6;;;1.3;;
61570;SDS011;47463;49.884;10.010;2022-10-22T17:00:00;6.6;;;1.7;;
61570;SDS011;47463;49.884;10.010;2022-10-22T17:05:00;6;;;2;;
61570;SDS011;47463;49.884;10.010;2022-10-22T17:10:00;10.2;;;3.2;;
61570;SDS011;47463;49.884;10.010;2022-10-22T17:15:00;10.2;;;3.2;;
61570;SDS011;47463;49.884;10.010;2022-10-22T17:20:00;12;;;2.4;;
61570;SDS011;47463;49.884;10.010;2022-10-22T17:25:05;7.6;;;1.7;;
61570;SDS011;47463;49.884;10.010;2022-10-22T17:30:00;7.4;;;1.6;;
61570;SDS011;47463;49.884;10.010;2022-10-22T17:35:00;5.1;;;1.7;;
61570;SDS011;47463;49.884;10.010;2022-10-22T17:40:00;5.1;;;1.7;;
61570;SDS011;47463;49.884;10.010;2022-10-22T17:45:00;5.1;;;1.7;;
61570;SDS011;47463;49.884;10.010;2022-10-22T17:50:00;8.8;;;2.1;;
61570;SDS011;47463;49.884;10.010;2022-10-22T17:55:00;9.2;;;2.4;;
61570;SDS011;47463;49.884;10.010;2022-10-22T18:00:00;6.3;;;1.8;;
61570;SDS011;47463;49.884;10.010;2022-10-22T18:05:00;5.8;;;2;;
61570;SDS011;47463;49.884;10.010;2022-10-22T18:10:00;6.6;;;1.6;;
61570;SDS011;47463;49.884;10.010;2022-10-22T18:15:00;6.6;;;1.6;;
61570;SDS011;47463;49.884;10.010;2022-10-22T18:20:00;7.8;;;1.7;;
61570;SDS011;47463;49.884;10.010;2022-10-22T18:25:00;6.3;;;2.2;;
61570;SDS011;47463;49.884;10.010;2022-10-22T18:30:00;10.7;;;1.9;;
61570;SDS011;47463;49.884;10.010;2022-10-22T18:35:00;9.6;;;2.1;;
61570;SDS011;47463;49.884;10.010;2022-10-22T18:40:00;6;;;2.1;;
61570;SDS011;47463;49.884;10.010;2022-10-22T18:45:00;6;;;2.1;;
61570;SDS011;47463;49.884;10.010;2022-10-22T18:50:00;5.3;;;2;;
61570;SDS011;47463;49.884;10.010;2022-10-22T18:55:00;10.2;;;2.2;;
61570;SDS011;47463;49.884;10.010;2022-10-22T19:00:00;5.8;;;1.9;;
61570;SDS011;47463;49.884;10.010;2022-10-22T19:05:00;4.7;;;2;;
61570;SDS011;47463;49.884;10.010;2022-10-22T19:10:00;8.3;;;1.9;;
61570;SDS011;47463;49.884;10.010;2022-10-22T19:15:00;8.3;;;1.9;;
61570;SDS011;47463;49.884;10.010;2022-10-22T19:20:00;3.9;;;1.8;;
61570;SDS011;47463;49.884;10.010;2022-10-22T19:25:00;6.9;;;2;;
61570;SDS011;47463;49.884;10.010;2022-10-22T19:30:00;6.9;;;2;;
61570;SDS011;47463;49.884;10.010;2022-10-22T19:35:00;5.5;;;2.2;;
61570;SDS011;47463;49.884;10.010;2022-10-22T19:40:00;6.5;;;2.6;;
61570;SDS011;47463;49.884;10.010;2022-10-22T19:45:00;6.5;;;2.6;;
61570;SDS011;47463;49.884;10.010;2022-10-22T19:50:00;7.1;;;2.2;;
61570;SDS011;47463;49.884;10.010;2022-10-22T19:55:00;5.2;;;2.3;;
61570;SDS011;47463;49.884;10.010;2022-10-22T20:00:00;4.9;;;2;;
61570;SDS011;47463;49.884;10.010;2022-10-22T20:05:00;8.2;;;2.5;;
61570;SDS011;47463;49.884;10.010;2022-10-22T20:10:00;6.6;;;2.4;;
61570;SDS011;47463;49.884;10.010;2022-10-22T20:15:00;6.6;;;2.4;;
61570;SDS011;47463;49.884;10.010;2022-10-22T20:20:00;5.6;;;2.2;;
61570;SDS011;47463;49.884;10.010;2022-10-22T20:25:00;6;;;2.3;;
61570;SDS011;47463;49.884;10.010;2022-10-22T20:30:00;6.2;;;2.1;;
61570;SDS011;47463;49.884;10.010;2022-10-22T20:35:00;5;;;1.9;;
61570;SDS011;47463;49.884;10.010;2022-10-22T20:40:00;6.7;;;2.1;;
61570;SDS011;47463;49.884;10.010;2022-10-22T20:45:00;6.7;;;2.1;;
61570;SDS011;47463;49.884;10.010;2022-10-22T20:50:00;4.6;;;2.3;;
61570;SDS011;47463;49.884;10.010;2022-10-22T20:55:00;4.3;;;2.3;;
61570;SDS011;47463;49.884;10.010;2022-10-22T21:00:00;7.9;;;2.6;;
61570;SDS011;47463;49.884;10.010;2022-10-22T21:05:00;7.1;;;2.3;;
61570;SDS011;47463;49.884;10.010;2022-10-22T21:10:00;7.7;;;2.7;;
61570;SDS011;47463;49.884;10.010;2022-10-22T21:15:00;7.7;;;2.7;;
61570;SDS011;47463;49.884;10.010;2022-10-22T21:20:00;5.8;;;2.2;;
61570;SDS011;47463;49.884;10.010;2022-10-22T21:25:00;6.9;;;2.2;;
61570;SDS011;47463;49.884;10.010;2022-10-22T21:30:00;10.9;;;2.1;;
61570;SDS011;47463;49.884;10.010;2022-10-22T21:35:00;7.5;;;2.7;;
61570;SDS011;47463;49.884;10.010;2022-10-22T21:40:00;8.2;;;2;;
61570;SDS011;47463;49.884;10.010;2022-10-22T21:45:00;8.2;;;2;;
61570;SDS011;47463;49.884;10.010;2022-10-22T21:50:00;8.3;;;2;;
61570;SDS011;47463;49.884;10.010;2022-10-22T21:55:00;7.6;;;1.9;;
61570;SDS011;47463;49.884;10.010;2022-10-22T22:00:00;8.5;;;2;;
61570;SDS011;47463;49.884;10.010;2022-10-22T22:05:00;7.7;;;1.9;;
61570;SDS011;47463;49.884;10.010;2022-10-22T22:10:00;8.3;;;2.1;;
61570;SDS011;47463;49.884;10.010;2022-10-22T22:15:00;8.3;;;2.1;;
61570;SDS011;47463;49.884;10.010;2022-10-22T22:20:00;7.4;;;2;;
61570;SDS011;47463;49.884;10.010;2022-10-22T22:25:00;7.1;;;2.3;;
61570;SDS011;47463;49.884;10.010;2022-10-22T22:30:00;7.5;;;2.3;;
61570;SDS011;47463;49.884;10.010;2022-10-22T22:35:00;9.5;;;2.2;;
61570;SDS011;47463;49.884;10.010;2022-10-22T22:40:00;8.5;;;2.4;;
61570;SDS011;47463;49.884;10.010;2022-10-22T22:45:00;8.5;;;2.4;;
61570;SDS011;47463;49.884;10.010;2022-10-22T22:50:00;7.1;;;2.5;;
61570;SDS011;47463;49.884;10.010;2022-10-22T22:55:00;6.9;;;3.1;;
61570;SDS011;47463;49.884;10.010;2022-10-22T23:00:00;11.9;;;2.7;;
61570;SDS011;47463;49.884;10.010;2022-10-22T23:05:00;10.8;;;3;;
61570;SDS011;47463;49.884;10.010;2022-10-22T23:10:00;6.9;;;2.8;;
61570;SDS011;47463;49.884;10.010;2022-10-22T23:15:00;6.9;;;2.8;;
61570;SDS011;47463;49.884;10.010;2022-10-22T23:20:00;5.4;;;2.4;;
61570;SDS011;47463;49.884;10.010;2022-10-22T23:25:00;13.6;;;4;;
61570;SDS011;47463;49.884;10.010;2022-10-22T23:30:00;6.8;;;2.6;;
61570;SDS011;47463;49.884;10.010;2022-10-22T23:35:00;6.8;;;2.7;;
61570;SDS011;47463;49.884;10.010;2022-10-22T23:40:00;7.4;;;2.6;;
61570;SDS011;47463;49.884;10.010;2022-10-22T23:45:00;7.4;;;2.6;;
61570;SDS011;47463;49.884;10.010;2022-10-22T23:50:00;10.9;;;3;;
61570;SDS011;47463;49.884;10.010;2022-10-22T23:55:00;7.6;;;3.1;;
